sensor_id;sensor_type;location;lat;lon;timestamp;P1;durP1;ratioP1;P2;durP2;ratioP2
10096;SDS011;5087;42.662;23.466;2023-07-22T00:01:55;0.80;;;0.80;;
10096;SDS011;5087;42.662;23.466;2023-07-22T00:04:28;1.00;;;1.00;;
10096;SDS011;5087;42.662;23.466;2023-07-22T00:06:55;1.30;;;1.20;;
10096;SDS011;5087;42.662;23.466;2023-07-22T00:09:26;2.23;;;2.13;;
10096;SDS011;5087;42.662;23.466;2023-07-22T00:11:53;1.40;;;1.40;;
10096;SDS011;5087;42.662;23.466;2023-07-22T00:14:21;1.10;;;1.10;;
10096;SDS011;5087;42.662;23.466;2023-07-22T00:16:48;1.93;;;1.90;;
10096;SDS011;5087;42.662;23.466;2023-07-22T00:19:16;1.20;;;1.20;;
10096;SDS011;5087;42.662;23.466;2023-07-22T00:21:43;1.20;;;1.20;;
10096;SDS011;5087;42.662;23.466;2023-07-22T00:24:10;1.30;;;1.30;;
10096;SDS011;5087;42.662;23.466;2023-07-22T00:26:39;1.30;;;1.30;;
10096;SDS011;5087;42.662;23.466;2023-07-22T00:29:07;1.20;;;1.20;;
10096;SDS011;5087;42.662;23.466;2023-07-22T00:31:35;1.20;;;1.20;;
10096;SDS011;5087;42.662;23.466;2023-07-22T00:34:02;1.20;;;1.20;;
10096;SDS011;5087;42.662;23.466;2023-07-22T00:36:29;1.10;;;1.10;;
10096;SDS011;5087;42.662;23.466;2023-07-22T00:38:57;1.20;;;1.20;;
10096;SDS011;5087;42.662;23.466;2023-07-22T00:41:24;1.10;;;1.10;;
10096;SDS011;5087;42.662;23.466;2023-07-22T00:43:53;1.10;;;1.10;;
10096;SDS011;5087;42.662;23.466;2023-07-22T00:46:20;1.10;;;1.10;;
10096;SDS011;5087;42.662;23.466;2023-07-22T00:48:51;1.20;;;1.20;;
10096;SDS011;5087;42.662;23.466;2023-07-22T00:51:19;1.30;;;1.30;;
10096;SDS011;5087;42.662;23.466;2023-07-22T00:53:48;1.20;;;1.20;;
10096;SDS011;5087;42.662;23.466;2023-07-22T00:56:15;1.20;;;1.20;;
10096;SDS011;5087;42.662;23.466;2023-07-22T00:58:42;1.10;;;1.10;;
10096;SDS011;5087;42.662;23.466;2023-07-22T01:01:11;1.10;;;1.10;;
10096;SDS011;5087;42.662;23.466;2023-07-22T01:03:38;1.20;;;1.20;;
10096;SDS011;5087;42.662;23.466;2023-07-22T01:06:06;1.10;;;1.10;;
10096;SDS011;5087;42.662;23.466;2023-07-22T01:08:34;1.00;;;1.00;;
10096;SDS011;5087;42.662;23.466;2023-07-22T01:11:01;1.00;;;1.00;;
10096;SDS011;5087;42.662;23.466;2023-07-22T01:13:29;1.03;;;1.03;;
10096;SDS011;5087;42.662;23.466;2023-07-22T01:15:56;0.90;;;0.90;;
10096;SDS011;5087;42.662;23.466;2023-07-22T01:18:25;0.90;;;0.90;;
10096;SDS011;5087;42.662;23.466;2023-07-22T01:20:52;0.90;;;0.90;;
10096;SDS011;5087;42.662;23.466;2023-07-22T01:23:25;0.90;;;0.90;;
10096;SDS011;5087;42.662;23.466;2023-07-22T01:25:52;1.00;;;1.00;;
10096;SDS011;5087;42.662;23.466;2023-07-22T01:28:21;0.90;;;0.90;;
10096;SDS011;5087;42.662;23.466;2023-07-22T01:30:48;0.90;;;0.90;;
10096;SDS011;5087;42.662;23.466;2023-07-22T01:33:15;0.80;;;0.80;;
10096;SDS011;5087;42.662;23.466;2023-07-22T01:35:42;0.90;;;0.90;;
10096;SDS011;5087;42.662;23.466;2023-07-22T01:38:09;0.90;;;0.90;;
10096;SDS011;5087;42.662;23.466;2023-07-22T01:40:38;0.80;;;0.80;;
10096;SDS011;5087;42.662;23.466;2023-07-22T01:43:05;0.90;;;0.90;;
10096;SDS011;5087;42.662;23.466;2023-07-22T01:45:32;0.70;;;0.70;;
10096;SDS011;5087;42.662;23.466;2023-07-22T01:47:59;0.70;;;0.70;;
10096;SDS011;5087;42.662;23.466;2023-07-22T01:50:27;0.80;;;0.80;;
10096;SDS011;5087;42.662;23.466;2023-07-22T01:52:54;1.00;;;1.00;;
10096;SDS011;5087;42.662;23.466;2023-07-22T01:55:21;0.80;;;0.80;;
10096;SDS011;5087;42.662;23.466;2023-07-22T01:57:51;0.80;;;0.80;;
10096;SDS011;5087;42.662;23.466;2023-07-22T02:00:18;0.80;;;0.80;;
10096;SDS011;5087;42.662;23.466;2023-07-22T02:02:49;0.80;;;0.80;;
10096;SDS011;5087;42.662;23.466;2023-07-22T02:05:17;1.17;;;1.17;;
10096;SDS011;5087;42.662;23.466;2023-07-22T02:07:46;0.90;;;0.90;;
10096;SDS011;5087;42.662;23.466;2023-07-22T02:10:13;0.90;;;0.90;;
10096;SDS011;5087;42.662;23.466;2023-07-22T02:12:40;0.80;;;0.80;;
10096;SDS011;5087;42.662;23.466;2023-07-22T02:15:09;0.70;;;0.70;;
10096;SDS011;5087;42.662;23.466;2023-07-22T02:17:36;0.60;;;0.60;;
10096;SDS011;5087;42.662;23.466;2023-07-22T02:20:04;0.60;;;0.60;;
10096;SDS011;5087;42.662;23.466;2023-07-22T02:22:34;0.57;;;0.57;;
10096;SDS011;5087;42.662;23.466;2023-07-22T02:25:01;0.50;;;0.50;;
10096;SDS011;5087;42.662;23.466;2023-07-22T02:27:28;0.50;;;0.50;;
10096;SDS011;5087;42.662;23.466;2023-07-22T02:29:55;0.60;;;0.60;;
10096;SDS011;5087;42.662;23.466;2023-07-22T02:32:24;0.30;;;0.30;;
10096;SDS011;5087;42.662;23.466;2023-07-22T02:34:51;0.40;;;0.40;;
10096;SDS011;5087;42.662;23.466;2023-07-22T02:37:20;0.30;;;0.30;;
10096;SDS011;5087;42.662;23.466;2023-07-22T02:39:48;0.30;;;0.30;;
10096;SDS011;5087;42.662;23.466;2023-07-22T02:42:15;0.27;;;0.27;;
10096;SDS011;5087;42.662;23.466;2023-07-22T02:44:43;0.40;;;0.40;;
10096;SDS011;5087;42.662;23.466;2023-07-22T02:47:10;0.20;;;0.20;;
10096;SDS011;5087;42.662;23.466;2023-07-22T02:49:39;0.80;;;0.80;;
10096;SDS011;5087;42.662;23.466;2023-07-22T02:52:06;0.30;;;0.30;;
10096;SDS011;5087;42.662;23.466;2023-07-22T02:54:39;0.20;;;0.20;;
10096;SDS011;5087;42.662;23.466;2023-07-22T02:57:07;0.20;;;0.20;;
10096;SDS011;5087;42.662;23.466;2023-07-22T02:59:34;0.20;;;0.20;;
10096;SDS011;5087;42.662;23.466;2023-07-22T03:02:02;0.20;;;0.20;;
10096;SDS011;5087;42.662;23.466;2023-07-22T03:04:29;0.20;;;0.20;;
10096;SDS011;5087;42.662;23.466;2023-07-22T03:06:58;0.30;;;0.30;;
10096;SDS011;5087;42.662;23.466;2023-07-22T03:09:25;0.20;;;0.20;;
10096;SDS011;5087;42.662;23.466;2023-07-22T03:11:52;0.20;;;0.20;;
10096;SDS011;5087;42.662;23.466;2023-07-22T03:14:19;0.20;;;0.20;;
10096;SDS011;5087;42.662;23.466;2023-07-22T03:16:48;0.20;;;0.20;;
10096;SDS011;5087;42.662;23.466;2023-07-22T03:19:15;0.20;;;0.20;;
10096;SDS011;5087;42.662;23.466;2023-07-22T03:21:42;0.20;;;0.20;;
10096;SDS011;5087;42.662;23.466;2023-07-22T03:24:11;0.20;;;0.20;;
10096;SDS011;5087;42.662;23.466;2023-07-22T03:26:38;0.33;;;0.33;;
10096;SDS011;5087;42.662;23.466;2023-07-22T03:29:05;0.20;;;0.20;;
10096;SDS011;5087;42.662;23.466;2023-07-22T03:31:33;0.20;;;0.20;;
10096;SDS011;5087;42.662;23.466;2023-07-22T03:34:00;0.20;;;0.20;;
10096;SDS011;5087;42.662;23.466;2023-07-22T03:36:27;0.20;;;0.20;;
10096;SDS011;5087;42.662;23.466;2023-07-22T03:38:54;0.30;;;0.30;;
10096;SDS011;5087;42.662;23.466;2023-07-22T03:41:24;0.30;;;0.30;;
10096;SDS011;5087;42.662;23.466;2023-07-22T03:43:51;0.20;;;0.20;;
10096;SDS011;5087;42.662;23.466;2023-07-22T03:46:19;0.20;;;0.20;;
10096;SDS011;5087;42.662;23.466;2023-07-22T03:48:46;0.20;;;0.20;;
10096;SDS011;5087;42.662;23.466;2023-07-22T03:51:13;0.20;;;0.20;;
10096;SDS011;5087;42.662;23.466;2023-07-22T03:53:40;0.20;;;0.20;;
10096;SDS011;5087;42.662;23.466;2023-07-22T03:56:08;0.20;;;0.20;;
10096;SDS011;5087;42.662;23.466;2023-07-22T03:58:36;0.27;;;0.27;;
10096;SDS011;5087;42.662;23.466;2023-07-22T04:01:03;0.20;;;0.20;;
10096;SDS011;5087;42.662;23.466;2023-07-22T04:03:31;0.30;;;0.30;;
10096;SDS011;5087;42.662;23.466;2023-07-22T04:05:58;0.30;;;0.30;;
10096;SDS011;5087;42.662;23.466;2023-07-22T04:08:26;0.30;;;0.30;;
10096;SDS011;5087;42.662;23.466;2023-07-22T04:10:53;0.40;;;0.40;;
10096;SDS011;5087;42.662;23.466;2023-07-22T04:13:20;0.40;;;0.40;;
10096;SDS011;5087;42.662;23.466;2023-07-22T04:15:51;0.40;;;0.40;;
10096;SDS011;5087;42.662;23.466;2023-07-22T04:18:19;0.30;;;0.30;;
10096;SDS011;5087;42.662;23.466;2023-07-22T04:20:48;0.40;;;0.40;;
10096;SDS011;5087;42.662;23.466;2023-07-22T04:23:22;0.40;;;0.40;;
10096;SDS011;5087;42.662;23.466;2023-07-22T04:25:50;0.50;;;0.50;;
10096;SDS011;5087;42.662;23.466;2023-07-22T04:28:17;0.60;;;0.60;;
10096;SDS011;5087;42.662;23.466;2023-07-22T04:30:53;0.40;;;0.40;;
10096;SDS011;5087;42.662;23.466;2023-07-22T04:33:34;0.30;;;0.30;;
10096;SDS011;5087;42.662;23.466;2023-07-22T04:36:01;0.40;;;0.40;;
10096;SDS011;5087;42.662;23.466;2023-07-22T04:38:28;0.40;;;0.40;;
10096;SDS011;5087;42.662;23.466;2023-07-22T04:40:57;0.40;;;0.40;;
10096;SDS011;5087;42.662;23.466;2023-07-22T04:43:24;0.40;;;0.40;;
10096;SDS011;5087;42.662;23.466;2023-07-22T04:45:52;0.60;;;0.60;;
10096;SDS011;5087;42.662;23.466;2023-07-22T04:48:21;0.40;;;0.40;;
10096;SDS011;5087;42.662;23.466;2023-07-22T04:50:49;0.40;;;0.40;;
10096;SDS011;5087;42.662;23.466;2023-07-22T04:53:17;0.40;;;0.40;;
10096;SDS011;5087;42.662;23.466;2023-07-22T04:55:45;0.40;;;0.40;;
10096;SDS011;5087;42.662;23.466;2023-07-22T04:58:13;0.40;;;0.40;;
10096;SDS011;5087;42.662;23.466;2023-07-22T05:00:40;2.00;;;1.07;;
10096;SDS011;5087;42.662;23.466;2023-07-22T05:03:08;0.60;;;0.60;;
10096;SDS011;5087;42.662;23.466;2023-07-22T05:05:38;0.57;;;0.57;;
10096;SDS011;5087;42.662;23.466;2023-07-22T05:08:05;0.60;;;0.60;;
10096;SDS011;5087;42.662;23.466;2023-07-22T05:10:33;0.60;;;0.60;;
10096;SDS011;5087;42.662;23.466;2023-07-22T05:13:01;0.60;;;0.60;;
10096;SDS011;5087;42.662;23.466;2023-07-22T05:15:28;0.60;;;0.60;;
10096;SDS011;5087;42.662;23.466;2023-07-22T05:17:55;0.60;;;0.60;;
10096;SDS011;5087;42.662;23.466;2023-07-22T05:20:23;0.77;;;0.77;;
10096;SDS011;5087;42.662;23.466;2023-07-22T05:22:52;0.70;;;0.70;;
10096;SDS011;5087;42.662;23.466;2023-07-22T05:25:19;0.63;;;0.63;;
10096;SDS011;5087;42.662;23.466;2023-07-22T05:27:46;0.93;;;0.93;;
10096;SDS011;5087;42.662;23.466;2023-07-22T05:30:13;0.67;;;0.67;;
10096;SDS011;5087;42.662;23.466;2023-07-22T05:32:41;0.60;;;0.60;;
10096;SDS011;5087;42.662;23.466;2023-07-22T05:35:08;0.60;;;0.60;;
10096;SDS011;5087;42.662;23.466;2023-07-22T05:37:38;0.70;;;0.70;;
10096;SDS011;5087;42.662;23.466;2023-07-22T05:40:08;0.60;;;0.60;;
10096;SDS011;5087;42.662;23.466;2023-07-22T05:42:36;0.67;;;0.67;;
10096;SDS011;5087;42.662;23.466;2023-07-22T05:45:03;0.60;;;0.60;;
10096;SDS011;5087;42.662;23.466;2023-07-22T05:47:31;0.60;;;0.60;;
10096;SDS011;5087;42.662;23.466;2023-07-22T05:49:58;0.87;;;0.87;;
10096;SDS011;5087;42.662;23.466;2023-07-22T05:52:25;0.50;;;0.50;;
10096;SDS011;5087;42.662;23.466;2023-07-22T05:54:52;0.60;;;0.60;;
10096;SDS011;5087;42.662;23.466;2023-07-22T05:57:21;0.50;;;0.50;;
10096;SDS011;5087;42.662;23.466;2023-07-22T05:59:50;0.50;;;0.50;;
10096;SDS011;5087;42.662;23.466;2023-07-22T06:02:17;0.50;;;0.50;;
10096;SDS011;5087;42.662;23.466;2023-07-22T06:04:45;0.83;;;0.83;;
10096;SDS011;5087;42.662;23.466;2023-07-22T06:07:12;0.47;;;0.47;;
10096;SDS011;5087;42.662;23.466;2023-07-22T06:09:39;0.67;;;0.67;;
10096;SDS011;5087;42.662;23.466;2023-07-22T06:12:07;0.50;;;0.50;;
10096;SDS011;5087;42.662;23.466;2023-07-22T06:14:35;0.50;;;0.50;;
10096;SDS011;5087;42.662;23.466;2023-07-22T06:17:03;0.40;;;0.40;;
10096;SDS011;5087;42.662;23.466;2023-07-22T06:19:30;0.67;;;0.67;;
10096;SDS011;5087;42.662;23.466;2023-07-22T06:21:57;0.60;;;0.60;;
10096;SDS011;5087;42.662;23.466;2023-07-22T06:24:24;1.00;;;1.00;;
10096;SDS011;5087;42.662;23.466;2023-07-22T06:26:52;0.70;;;0.70;;
10096;SDS011;5087;42.662;23.466;2023-07-22T06:29:19;0.60;;;0.60;;
10096;SDS011;5087;42.662;23.466;2023-07-22T06:31:47;0.50;;;0.50;;
10096;SDS011;5087;42.662;23.466;2023-07-22T06:34:15;0.70;;;0.70;;
10096;SDS011;5087;42.662;23.466;2023-07-22T06:36:42;0.60;;;0.60;;
10096;SDS011;5087;42.662;23.466;2023-07-22T06:39:09;0.60;;;0.60;;
10096;SDS011;5087;42.662;23.466;2023-07-22T06:41:36;0.90;;;0.90;;
10096;SDS011;5087;42.662;23.466;2023-07-22T06:44:05;0.80;;;0.80;;
10096;SDS011;5087;42.662;23.466;2023-07-22T06:46:32;0.93;;;0.93;;
10096;SDS011;5087;42.662;23.466;2023-07-22T06:49:01;0.73;;;0.73;;
10096;SDS011;5087;42.662;23.466;2023-07-22T06:51:28;0.80;;;0.80;;
10096;SDS011;5087;42.662;23.466;2023-07-22T06:53:55;0.50;;;0.50;;
10096;SDS011;5087;42.662;23.466;2023-07-22T06:56:25;0.53;;;0.53;;
10096;SDS011;5087;42.662;23.466;2023-07-22T06:58:52;0.70;;;0.70;;
10096;SDS011;5087;42.662;23.466;2023-07-22T07:01:19;0.97;;;0.97;;
10096;SDS011;5087;42.662;23.466;2023-07-22T07:03:47;0.40;;;0.40;;
10096;SDS011;5087;42.662;23.466;2023-07-22T07:06:17;0.47;;;0.47;;
10096;SDS011;5087;42.662;23.466;2023-07-22T07:08:44;0.50;;;0.50;;
10096;SDS011;5087;42.662;23.466;2023-07-22T07:11:12;0.50;;;0.50;;
10096;SDS011;5087;42.662;23.466;2023-07-22T07:13:40;0.50;;;0.50;;
10096;SDS011;5087;42.662;23.466;2023-07-22T07:16:20;0.40;;;0.40;;
10096;SDS011;5087;42.662;23.466;2023-07-22T07:18:48;0.40;;;0.40;;
10096;SDS011;5087;42.662;23.466;2023-07-22T07:21:18;0.50;;;0.50;;
10096;SDS011;5087;42.662;23.466;2023-07-22T07:23:45;0.40;;;0.40;;
10096;SDS011;5087;42.662;23.466;2023-07-22T07:26:13;0.60;;;0.60;;
10096;SDS011;5087;42.662;23.466;2023-07-22T07:28:40;0.60;;;0.60;;
10096;SDS011;5087;42.662;23.466;2023-07-22T07:31:08;0.40;;;0.40;;
10096;SDS011;5087;42.662;23.466;2023-07-22T07:33:35;0.30;;;0.30;;
10096;SDS011;5087;42.662;23.466;2023-07-22T07:36:03;0.30;;;0.30;;
10096;SDS011;5087;42.662;23.466;2023-07-22T07:38:32;0.20;;;0.20;;
10096;SDS011;5087;42.662;23.466;2023-07-22T07:41:01;0.20;;;0.20;;
10096;SDS011;5087;42.662;23.466;2023-07-22T07:43:29;0.30;;;0.30;;
10096;SDS011;5087;42.662;23.466;2023-07-22T07:46:12;0.30;;;0.30;;
10096;SDS011;5087;42.662;23.466;2023-07-22T07:48:42;0.40;;;0.40;;
10096;SDS011;5087;42.662;23.466;2023-07-22T07:51:11;0.33;;;0.33;;
10096;SDS011;5087;42.662;23.466;2023-07-22T07:53:40;0.20;;;0.20;;
10096;SDS011;5087;42.662;23.466;2023-07-22T07:56:09;0.53;;;0.53;;
10096;SDS011;5087;42.662;23.466;2023-07-22T07:58:37;0.20;;;0.20;;
10096;SDS011;5087;42.662;23.466;2023-07-22T08:01:04;0.20;;;0.20;;
10096;SDS011;5087;42.662;23.466;2023-07-22T08:03:32;0.43;;;0.43;;
10096;SDS011;5087;42.662;23.466;2023-07-22T08:06:00;0.20;;;0.20;;
10096;SDS011;5087;42.662;23.466;2023-07-22T08:08:28;0.30;;;0.30;;
10096;SDS011;5087;42.662;23.466;2023-07-22T08:11:00;0.50;;;0.50;;
10096;SDS011;5087;42.662;23.466;2023-07-22T08:13:29;0.50;;;0.50;;
10096;SDS011;5087;42.662;23.466;2023-07-22T08:15:59;0.20;;;0.20;;
10096;SDS011;5087;42.662;23.466;2023-07-22T08:18:27;0.10;;;0.10;;
10096;SDS011;5087;42.662;23.466;2023-07-22T08:20:54;0.20;;;0.20;;
10096;SDS011;5087;42.662;23.466;2023-07-22T08:23:23;0.27;;;0.27;;
10096;SDS011;5087;42.662;23.466;2023-07-22T08:25:51;0.50;;;0.50;;
10096;SDS011;5087;42.662;23.466;2023-07-22T08:28:20;0.30;;;0.30;;
10096;SDS011;5087;42.662;23.466;2023-07-22T08:30:47;0.20;;;0.20;;
10096;SDS011;5087;42.662;23.466;2023-07-22T08:33:14;0.33;;;0.33;;
10096;SDS011;5087;42.662;23.466;2023-07-22T08:35:42;0.20;;;0.20;;
10096;SDS011;5087;42.662;23.466;2023-07-22T08:38:10;0.10;;;0.10;;
10096;SDS011;5087;42.662;23.466;2023-07-22T08:40:39;0.23;;;0.23;;
10096;SDS011;5087;42.662;23.466;2023-07-22T08:43:09;0.20;;;0.20;;
10096;SDS011;5087;42.662;23.466;2023-07-22T08:45:38;0.50;;;0.50;;
10096;SDS011;5087;42.662;23.466;2023-07-22T08:48:06;0.20;;;0.20;;
10096;SDS011;5087;42.662;23.466;2023-07-22T08:50:40;0.33;;;0.33;;
10096;SDS011;5087;42.662;23.466;2023-07-22T08:53:10;0.30;;;0.30;;
10096;SDS011;5087;42.662;23.466;2023-07-22T08:55:39;0.30;;;0.30;;
10096;SDS011;5087;42.662;23.466;2023-07-22T08:58:07;0.23;;;0.23;;
10096;SDS011;5087;42.662;23.466;2023-07-22T09:00:35;0.30;;;0.30;;
10096;SDS011;5087;42.662;23.466;2023-07-22T09:03:05;0.40;;;0.40;;
10096;SDS011;5087;42.662;23.466;2023-07-22T09:05:33;0.37;;;0.30;;
10096;SDS011;5087;42.662;23.466;2023-07-22T09:08:03;0.13;;;0.13;;
10096;SDS011;5087;42.662;23.466;2023-07-22T09:10:32;0.33;;;0.33;;
10096;SDS011;5087;42.662;23.466;2023-07-22T09:12:59;0.30;;;0.30;;
10096;SDS011;5087;42.662;23.466;2023-07-22T09:15:27;0.40;;;0.40;;
10096;SDS011;5087;42.662;23.466;2023-07-22T09:17:55;0.23;;;0.23;;
10096;SDS011;5087;42.662;23.466;2023-07-22T09:20:27;0.30;;;0.30;;
10096;SDS011;5087;42.662;23.466;2023-07-22T09:22:54;0.80;;;0.80;;
10096;SDS011;5087;42.662;23.466;2023-07-22T09:25:22;0.30;;;0.30;;
10096;SDS011;5087;42.662;23.466;2023-07-22T09:27:51;0.30;;;0.30;;
10096;SDS011;5087;42.662;23.466;2023-07-22T09:30:21;0.20;;;0.20;;
10096;SDS011;5087;42.662;23.466;2023-07-22T09:32:54;0.50;;;0.50;;
10096;SDS011;5087;42.662;23.466;2023-07-22T09:35:22;2.43;;;0.40;;
10096;SDS011;5087;42.662;23.466;2023-07-22T09:37:53;0.20;;;0.20;;
10096;SDS011;5087;42.662;23.466;2023-07-22T09:40:22;0.40;;;0.40;;
10096;SDS011;5087;42.662;23.466;2023-07-22T09:42:51;0.40;;;0.30;;
10096;SDS011;5087;42.662;23.466;2023-07-22T09:45:20;0.20;;;0.20;;
10096;SDS011;5087;42.662;23.466;2023-07-22T09:47:50;0.10;;;0.10;;
10096;SDS011;5087;42.662;23.466;2023-07-22T09:50:19;0.20;;;0.20;;
10096;SDS011;5087;42.662;23.466;2023-07-22T09:52:50;0.30;;;0.30;;
10096;SDS011;5087;42.662;23.466;2023-07-22T09:55:20;0.50;;;0.50;;
10096;SDS011;5087;42.662;23.466;2023-07-22T09:57:50;0.30;;;0.30;;
10096;SDS011;5087;42.662;23.466;2023-07-22T10:00:19;0.20;;;0.20;;
10096;SDS011;5087;42.662;23.466;2023-07-22T10:02:47;0.73;;;0.70;;
10096;SDS011;5087;42.662;23.466;2023-07-22T10:05:16;0.68;;;0.40;;
10096;SDS011;5087;42.662;23.466;2023-07-22T10:07:44;0.50;;;0.50;;
10096;SDS011;5087;42.662;23.466;2023-07-22T10:10:14;0.20;;;0.20;;
10096;SDS011;5087;42.662;23.466;2023-07-22T10:12:44;0.35;;;0.35;;
10096;SDS011;5087;42.662;23.466;2023-07-22T10:15:13;0.40;;;0.40;;
10096;SDS011;5087;42.662;23.466;2023-07-22T10:17:41;0.10;;;0.10;;
10096;SDS011;5087;42.662;23.466;2023-07-22T10:20:10;0.10;;;0.10;;
10096;SDS011;5087;42.662;23.466;2023-07-22T10:22:41;0.10;;;0.10;;
10096;SDS011;5087;42.662;23.466;2023-07-22T10:25:11;0.10;;;0.10;;
10096;SDS011;5087;42.662;23.466;2023-07-22T10:27:39;0.20;;;0.20;;
10096;SDS011;5087;42.662;23.466;2023-07-22T10:30:09;0.10;;;0.10;;
10096;SDS011;5087;42.662;23.466;2023-07-22T10:32:38;0.10;;;0.10;;
10096;SDS011;5087;42.662;23.466;2023-07-22T10:35:08;0.50;;;0.50;;
10096;SDS011;5087;42.662;23.466;2023-07-22T10:37:39;0.30;;;0.30;;
10096;SDS011;5087;42.662;23.466;2023-07-22T10:40:25;0.15;;;0.15;;
10096;SDS011;5087;42.662;23.466;2023-07-22T10:43:00;0.10;;;0.10;;
10096;SDS011;5087;42.662;23.466;2023-07-22T10:45:33;2.08;;;0.63;;
10096;SDS011;5087;42.662;23.466;2023-07-22T10:48:08;0.45;;;0.45;;
10096;SDS011;5087;42.662;23.466;2023-07-22T10:50:41;0.28;;;0.28;;
10096;SDS011;5087;42.662;23.466;2023-07-22T10:53:10;0.43;;;0.43;;
10096;SDS011;5087;42.662;23.466;2023-07-22T11:01:31;0.22;;;0.22;;
10096;SDS011;5087;42.662;23.466;2023-07-22T11:04:05;0.52;;;0.52;;
10096;SDS011;5087;42.662;23.466;2023-07-22T11:06:53;0.57;;;0.57;;
10096;SDS011;5087;42.662;23.466;2023-07-22T11:09:36;0.20;;;0.20;;
10096;SDS011;5087;42.662;23.466;2023-07-22T11:12:05;0.20;;;0.20;;
10096;SDS011;5087;42.662;23.466;2023-07-22T11:14:34;0.10;;;0.10;;
10096;SDS011;5087;42.662;23.466;2023-07-22T11:17:06;0.40;;;0.40;;
10096;SDS011;5087;42.662;23.466;2023-07-22T11:19:39;0.10;;;0.10;;
10096;SDS011;5087;42.662;23.466;2023-07-22T11:22:07;0.22;;;0.22;;
10096;SDS011;5087;42.662;23.466;2023-07-22T11:24:35;0.52;;;0.52;;
10096;SDS011;5087;42.662;23.466;2023-07-22T11:27:03;1.00;;;0.60;;
10096;SDS011;5087;42.662;23.466;2023-07-22T11:29:32;0.10;;;0.10;;
10096;SDS011;5087;42.662;23.466;2023-07-22T11:31:59;0.28;;;0.28;;
10096;SDS011;5087;42.662;23.466;2023-07-22T11:34:28;0.10;;;0.10;;
10096;SDS011;5087;42.662;23.466;2023-07-22T11:36:56;0.10;;;0.10;;
10096;SDS011;5087;42.662;23.466;2023-07-22T11:39:24;0.13;;;0.13;;
10096;SDS011;5087;42.662;23.466;2023-07-22T11:41:53;0.47;;;0.47;;
10096;SDS011;5087;42.662;23.466;2023-07-22T11:44:21;0.22;;;0.22;;
10096;SDS011;5087;42.662;23.466;2023-07-22T11:46:52;0.90;;;0.68;;
10096;SDS011;5087;42.662;23.466;2023-07-22T11:49:24;0.30;;;0.30;;
10096;SDS011;5087;42.662;23.466;2023-07-22T11:51:55;0.10;;;0.10;;
10096;SDS011;5087;42.662;23.466;2023-07-22T11:54:24;0.25;;;0.25;;
10096;SDS011;5087;42.662;23.466;2023-07-22T11:56:51;0.20;;;0.20;;
10096;SDS011;5087;42.662;23.466;2023-07-22T11:59:32;0.10;;;0.10;;
10096;SDS011;5087;42.662;23.466;2023-07-22T12:02:00;0.38;;;0.38;;
10096;SDS011;5087;42.662;23.466;2023-07-22T12:04:30;0.47;;;0.35;;
10096;SDS011;5087;42.662;23.466;2023-07-22T12:07:00;0.10;;;0.10;;
10096;SDS011;5087;42.662;23.466;2023-07-22T12:09:29;0.15;;;0.15;;
10096;SDS011;5087;42.662;23.466;2023-07-22T12:11:57;0.10;;;0.10;;
10096;SDS011;5087;42.662;23.466;2023-07-22T12:14:31;0.10;;;0.10;;
10096;SDS011;5087;42.662;23.466;2023-07-22T12:17:00;0.10;;;0.10;;
10096;SDS011;5087;42.662;23.466;2023-07-22T12:19:28;0.10;;;0.10;;
10096;SDS011;5087;42.662;23.466;2023-07-22T12:21:55;0.10;;;0.10;;
10096;SDS011;5087;42.662;23.466;2023-07-22T12:24:28;1.88;;;1.08;;
10096;SDS011;5087;42.662;23.466;2023-07-22T12:26:55;0.10;;;0.10;;
10096;SDS011;5087;42.662;23.466;2023-07-22T12:29:25;0.63;;;0.63;;
10096;SDS011;5087;42.662;23.466;2023-07-22T12:31:52;0.10;;;0.10;;
10096;SDS011;5087;42.662;23.466;2023-07-22T12:34:19;0.10;;;0.10;;
10096;SDS011;5087;42.662;23.466;2023-07-22T12:36:47;0.30;;;0.30;;
10096;SDS011;5087;42.662;23.466;2023-07-22T12:39:14;0.13;;;0.13;;
10096;SDS011;5087;42.662;23.466;2023-07-22T12:41:42;0.10;;;0.10;;
10096;SDS011;5087;42.662;23.466;2023-07-22T12:44:10;0.65;;;0.65;;
10096;SDS011;5087;42.662;23.466;2023-07-22T12:46:37;0.20;;;0.20;;
10096;SDS011;5087;42.662;23.466;2023-07-22T12:49:04;0.43;;;0.43;;
10096;SDS011;5087;42.662;23.466;2023-07-22T12:51:32;0.50;;;0.50;;
10096;SDS011;5087;42.662;23.466;2023-07-22T12:53:59;0.20;;;0.20;;
10096;SDS011;5087;42.662;23.466;2023-07-22T12:56:27;0.52;;;0.52;;
10096;SDS011;5087;42.662;23.466;2023-07-22T12:58:55;0.57;;;0.57;;
10096;SDS011;5087;42.662;23.466;2023-07-22T13:01:26;0.50;;;0.50;;
10096;SDS011;5087;42.662;23.466;2023-07-22T13:03:53;0.10;;;0.10;;
10096;SDS011;5087;42.662;23.466;2023-07-22T13:06:20;0.17;;;0.17;;
10096;SDS011;5087;42.662;23.466;2023-07-22T13:08:47;0.55;;;0.32;;
10096;SDS011;5087;42.662;23.466;2023-07-22T13:11:14;0.22;;;0.20;;
10096;SDS011;5087;42.662;23.466;2023-07-22T13:13:42;0.10;;;0.10;;
10096;SDS011;5087;42.662;23.466;2023-07-22T13:16:10;0.28;;;0.28;;
10096;SDS011;5087;42.662;23.466;2023-07-22T13:18:37;0.22;;;0.22;;
10096;SDS011;5087;42.662;23.466;2023-07-22T13:21:05;0.32;;;0.28;;
10096;SDS011;5087;42.662;23.466;2023-07-22T13:23:32;0.10;;;0.10;;
10096;SDS011;5087;42.662;23.466;2023-07-22T13:26:00;0.10;;;0.10;;
10096;SDS011;5087;42.662;23.466;2023-07-22T13:28:27;0.10;;;0.10;;
10096;SDS011;5087;42.662;23.466;2023-07-22T13:30:54;0.38;;;0.25;;
10096;SDS011;5087;42.662;23.466;2023-07-22T13:33:26;0.13;;;0.13;;
10096;SDS011;5087;42.662;23.466;2023-07-22T13:35:53;0.10;;;0.10;;
10096;SDS011;5087;42.662;23.466;2023-07-22T13:38:20;0.52;;;0.52;;
10096;SDS011;5087;42.662;23.466;2023-07-22T13:40:47;0.15;;;0.15;;
10096;SDS011;5087;42.662;23.466;2023-07-22T13:43:15;0.20;;;0.20;;
10096;SDS011;5087;42.662;23.466;2023-07-22T13:45:42;0.10;;;0.10;;
10096;SDS011;5087;42.662;23.466;2023-07-22T13:48:09;0.10;;;0.10;;
10096;SDS011;5087;42.662;23.466;2023-07-22T13:50:38;0.10;;;0.10;;
10096;SDS011;5087;42.662;23.466;2023-07-22T13:53:14;0.38;;;0.38;;
10096;SDS011;5087;42.662;23.466;2023-07-22T13:55:42;0.35;;;0.35;;
10096;SDS011;5087;42.662;23.466;2023-07-22T13:58:09;0.20;;;0.20;;
10096;SDS011;5087;42.662;23.466;2023-07-22T14:00:36;0.10;;;0.10;;
10096;SDS011;5087;42.662;23.466;2023-07-22T14:03:03;0.38;;;0.38;;
10096;SDS011;5087;42.662;23.466;2023-07-22T14:05:30;0.10;;;0.10;;
10096;SDS011;5087;42.662;23.466;2023-07-22T14:07:59;0.70;;;0.70;;
10096;SDS011;5087;42.662;23.466;2023-07-22T14:10:26;0.20;;;0.20;;
10096;SDS011;5087;42.662;23.466;2023-07-22T14:12:54;0.10;;;0.10;;
10096;SDS011;5087;42.662;23.466;2023-07-22T14:15:21;0.10;;;0.10;;
10096;SDS011;5087;42.662;23.466;2023-07-22T14:17:50;0.10;;;0.10;;
10096;SDS011;5087;42.662;23.466;2023-07-22T14:20:17;0.43;;;0.43;;
10096;SDS011;5087;42.662;23.466;2023-07-22T14:22:45;0.13;;;0.13;;
10096;SDS011;5087;42.662;23.466;2023-07-22T14:25:17;0.10;;;0.10;;
10096;SDS011;5087;42.662;23.466;2023-07-22T14:27:45;0.35;;;0.35;;
10096;SDS011;5087;42.662;23.466;2023-07-22T14:30:13;0.30;;;0.30;;
10096;SDS011;5087;42.662;23.466;2023-07-22T14:32:47;0.20;;;0.20;;
10096;SDS011;5087;42.662;23.466;2023-07-22T14:35:16;0.10;;;0.10;;
10096;SDS011;5087;42.662;23.466;2023-07-22T14:37:44;0.28;;;0.28;;
10096;SDS011;5087;42.662;23.466;2023-07-22T14:40:12;0.40;;;0.40;;
10096;SDS011;5087;42.662;23.466;2023-07-22T14:42:41;0.30;;;0.30;;
10096;SDS011;5087;42.662;23.466;2023-07-22T14:45:08;0.10;;;0.10;;
10096;SDS011;5087;42.662;23.466;2023-07-22T14:47:36;0.10;;;0.10;;
10096;SDS011;5087;42.662;23.466;2023-07-22T14:50:03;0.40;;;0.40;;
10096;SDS011;5087;42.662;23.466;2023-07-22T14:52:31;0.20;;;0.20;;
10096;SDS011;5087;42.662;23.466;2023-07-22T14:54:58;0.20;;;0.20;;
10096;SDS011;5087;42.662;23.466;2023-07-22T14:57:26;0.10;;;0.10;;
10096;SDS011;5087;42.662;23.466;2023-07-22T14:59:56;0.10;;;0.10;;
10096;SDS011;5087;42.662;23.466;2023-07-22T15:02:26;0.17;;;0.17;;